sensor_id;sensor_type;location;lat;lon;timestamp;temperature;humidity
5172;DHT22;2605;49.770;9.868;2022-08-19T00:00:21;19.50;99.90
5172;DHT22;2605;49.770;9.868;2022-08-19T00:02:46;19.40;99.90
5172;DHT22;2605;49.770;9.868;2022-08-19T00:05:13;19.40;99.90
5172;DHT22;2605;49.770;9.868;2022-08-19T00:07:41;19.40;99.90
5172;DHT22;2605;49.770;9.868;2022-08-19T00:10:11;19.30;99.90
5172;DHT22;2605;49.770;9.868;2022-08-19T00:12:37;19.30;99.90
5172;DHT22;2605;49.770;9.868;2022-08-19T00:15:05;19.30;99.90
5172;DHT22;2605;49.770;9.868;2022-08-19T00:17:31;19.20;99.90
5172;DHT22;2605;49.770;9.868;2022-08-19T00:19:56;19.10;99.90
5172;DHT22;2605;49.770;9.868;2022-08-19T00:22:22;19.00;99.90
5172;DHT22;2605;49.770;9.868;2022-08-19T00:24:47;19.00;99.90
5172;DHT22;2605;49.770;9.868;2022-08-19T00:27:13;18.90;99.90
5172;DHT22;2605;49.770;9.868;2022-08-19T00:29:39;18.80;99.90
5172;DHT22;2605;49.770;9.868;2022-08-19T00:32:05;18.80;99.90
5172;DHT22;2605;49.770;9.868;2022-08-19T00:34:31;18.80;99.90
5172;DHT22;2605;49.770;9.868;2022-08-19T00:36:57;18.80;99.90
5172;DHT22;2605;49.770;9.868;2022-08-19T00:39:23;18.70;99.90
5172;DHT22;2605;49.770;9.868;2022-08-19T00:41:50;18.70;99.90
5172;DHT22;2605;49.770;9.868;2022-08-19T00:44:19;18.70;99.90
5172;DHT22;2605;49.770;9.868;2022-08-19T00:46:46;18.70;99.90
5172;DHT22;2605;49.770;9.868;2022-08-19T00:49:18;18.60;99.90
5172;DHT22;2605;49.770;9.868;2022-08-19T00:51:47;18.60;99.90
5172;DHT22;2605;49.770;9.868;2022-08-19T00:54:15;18.60;99.90
5172;DHT22;2605;49.770;9.868;2022-08-19T00:56:41;18.60;99.90
5172;DHT22;2605;49.770;9.868;2022-08-19T00:59:07;18.60;99.90
5172;DHT22;2605;49.770;9.868;2022-08-19T01:01:38;18.50;99.90
5172;DHT22;2605;49.770;9.868;2022-08-19T01:04:05;18.50;99.90
5172;DHT22;2605;49.770;9.868;2022-08-19T01:06:32;18.50;99.90
5172;DHT22;2605;49.770;9.868;2022-08-19T01:08:59;18.50;99.90
5172;DHT22;2605;49.770;9.868;2022-08-19T01:11:26;18.50;99.90
5172;DHT22;2605;49.770;9.868;2022-08-19T01:13:52;18.50;99.90
5172;DHT22;2605;49.770;9.868;2022-08-19T01:16:20;18.50;99.90
5172;DHT22;2605;49.770;9.868;2022-08-19T01:18:46;18.50;99.90
5172;DHT22;2605;49.770;9.868;2022-08-19T01:21:21;18.50;99.90
5172;DHT22;2605;49.770;9.868;2022-08-19T01:23:47;18.50;99.90
5172;DHT22;2605;49.770;9.868;2022-08-19T01:26:19;18.40;99.90
5172;DHT22;2605;49.770;9.868;2022-08-19T01:28:46;18.30;99.90
5172;DHT22;2605;49.770;9.868;2022-08-19T01:31:16;18.30;99.90
5172;DHT22;2605;49.770;9.868;2022-08-19T01:33:42;18.30;99.90
5172;DHT22;2605;49.770;9.868;2022-08-19T01:36:11;18.30;99.90
5172;DHT22;2605;49.770;9.868;2022-08-19T01:38:39;18.20;99.90
5172;DHT22;2605;49.770;9.868;2022-08-19T01:41:06;18.30;99.90
5172;DHT22;2605;49.770;9.868;2022-08-19T01:43:32;18.30;99.90
5172;DHT22;2605;49.770;9.868;2022-08-19T01:45:58;18.30;99.90
5172;DHT22;2605;49.770;9.868;2022-08-19T01:48:24;18.30;99.90
5172;DHT22;2605;49.770;9.868;2022-08-19T01:50:49;18.30;99.90
5172;DHT22;2605;49.770;9.868;2022-08-19T01:53:15;18.40;99.90
5172;DHT22;2605;49.770;9.868;2022-08-19T01:55:42;18.40;99.90
5172;DHT22;2605;49.770;9.868;2022-08-19T01:58:15;18.40;99.90
5172;DHT22;2605;49.770;9.868;2022-08-19T02:00:43;18.40;99.90
5172;DHT22;2605;49.770;9.868;2022-08-19T02:03:08;18.40;99.90
5172;DHT22;2605;49.770;9.868;2022-08-19T02:05:36;18.40;99.90
5172;DHT22;2605;49.770;9.868;2022-08-19T02:08:02;18.40;99.90
5172;DHT22;2605;49.770;9.868;2022-08-19T02:10:28;18.40;99.90
5172;DHT22;2605;49.770;9.868;2022-08-19T02:12:53;18.40;99.90
5172;DHT22;2605;49.770;9.868;2022-08-19T02:15:22;18.40;99.90
5172;DHT22;2605;49.770;9.868;2022-08-19T02:17:48;18.40;99.90
5172;DHT22;2605;49.770;9.868;2022-08-19T02:20:14;18.40;99.90
5172;DHT22;2605;49.770;9.868;2022-08-19T02:22:40;18.30;99.90
5172;DHT22;2605;49.770;9.868;2022-08-19T02:25:08;18.30;99.90
5172;DHT22;2605;49.770;9.868;2022-08-19T02:27:35;18.20;99.90
5172;DHT22;2605;49.770;9.868;2022-08-19T02:30:01;18.20;99.90
5172;DHT22;2605;49.770;9.868;2022-08-19T02:32:26;18.10;99.90
5172;DHT22;2605;49.770;9.868;2022-08-19T02:34:52;18.10;99.90
5172;DHT22;2605;49.770;9.868;2022-08-19T02:37:17;18.10;99.90
5172;DHT22;2605;49.770;9.868;2022-08-19T02:40:03;18.00;99.90
5172;DHT22;2605;49.770;9.868;2022-08-19T02:42:28;18.00;99.90
5172;DHT22;2605;49.770;9.868;2022-08-19T02:44:55;18.00;99.90
5172;DHT22;2605;49.770;9.868;2022-08-19T02:47:21;18.00;99.90
5172;DHT22;2605;49.770;9.868;2022-08-19T02:49:46;18.00;99.90
5172;DHT22;2605;49.770;9.868;2022-08-19T02:52:15;18.00;99.90
5172;DHT22;2605;49.770;9.868;2022-08-19T02:54:41;17.90;99.90
5172;DHT22;2605;49.770;9.868;2022-08-19T02:57:06;17.90;99.90
5172;DHT22;2605;49.770;9.868;2022-08-19T02:59:33;17.90;99.90
5172;DHT22;2605;49.770;9.868;2022-08-19T03:01:58;17.90;99.90
5172;DHT22;2605;49.770;9.868;2022-08-19T03:04:27;17.90;99.90
5172;DHT22;2605;49.770;9.868;2022-08-19T03:06:52;18.00;99.90
5172;DHT22;2605;49.770;9.868;2022-08-19T03:09:19;18.00;99.90
5172;DHT22;2605;49.770;9.868;2022-08-19T03:11:45;18.10;99.90
5172;DHT22;2605;49.770;9.868;2022-08-19T03:14:12;18.10;99.90
5172;DHT22;2605;49.770;9.868;2022-08-19T03:16:44;18.10;99.90
5172;DHT22;2605;49.770;9.868;2022-08-19T03:19:10;18.10;99.90
5172;DHT22;2605;49.770;9.868;2022-08-19T03:21:35;18.10;99.90
5172;DHT22;2605;49.770;9.868;2022-08-19T03:24:04;18.00;99.90
5172;DHT22;2605;49.770;9.868;2022-08-19T03:26:30;17.90;99.90
5172;DHT22;2605;49.770;9.868;2022-08-19T03:28:56;17.90;99.90
5172;DHT22;2605;49.770;9.868;2022-08-19T03:31:23;17.80;99.90
5172;DHT22;2605;49.770;9.868;2022-08-19T03:33:50;17.80;99.90
5172;DHT22;2605;49.770;9.868;2022-08-19T03:36:20;17.70;99.90
5172;DHT22;2605;49.770;9.868;2022-08-19T03:38:54;17.70;99.90
5172;DHT22;2605;49.770;9.868;2022-08-19T03:41:25;17.60;99.90
5172;DHT22;2605;49.770;9.868;2022-08-19T03:43:52;17.50;99.90
5172;DHT22;2605;49.770;9.868;2022-08-19T03:46:24;17.50;99.90
5172;DHT22;2605;49.770;9.868;2022-08-19T03:48:52;17.50;99.90
5172;DHT22;2605;49.770;9.868;2022-08-19T03:51:27;17.50;99.90
5172;DHT22;2605;49.770;9.868;2022-08-19T03:53:54;17.50;99.90
5172;DHT22;2605;49.770;9.868;2022-08-19T03:56:21;17.40;99.90
5172;DHT22;2605;49.770;9.868;2022-08-19T03:58:47;17.40;99.90
5172;DHT22;2605;49.770;9.868;2022-08-19T04:01:16;17.30;99.90
5172;DHT22;2605;49.770;9.868;2022-08-19T04:03:43;17.30;99.90
5172;DHT22;2605;49.770;9.868;2022-08-19T04:06:17;17.30;99.90
5172;DHT22;2605;49.770;9.868;2022-08-19T04:08:45;17.40;99.90
5172;DHT22;2605;49.770;9.868;2022-08-19T04:11:13;17.30;99.90
5172;DHT22;2605;49.770;9.868;2022-08-19T04:13:39;17.30;99.90
5172;DHT22;2605;49.770;9.868;2022-08-19T04:16:06;17.40;99.90
5172;DHT22;2605;49.770;9.868;2022-08-19T04:18:36;17.40;99.90
5172;DHT22;2605;49.770;9.868;2022-08-19T04:21:06;17.50;99.90
5172;DHT22;2605;49.770;9.868;2022-08-19T04:23:32;17.40;99.90
5172;DHT22;2605;49.770;9.868;2022-08-19T04:25:58;17.40;99.90
5172;DHT22;2605;49.770;9.868;2022-08-19T04:28:26;17.40;99.90
5172;DHT22;2605;49.770;9.868;2022-08-19T04:30:53;17.40;99.90
5172;DHT22;2605;49.770;9.868;2022-08-19T04:33:22;17.40;99.90
5172;DHT22;2605;49.770;9.868;2022-08-19T04:35:50;17.40;99.90
5172;DHT22;2605;49.770;9.868;2022-08-19T04:38:22;17.40;99.90
5172;DHT22;2605;49.770;9.868;2022-08-19T04:40:50;17.40;99.90
5172;DHT22;2605;49.770;9.868;2022-08-19T04:43:36;17.40;99.90
5172;DHT22;2605;49.770;9.868;2022-08-19T04:46:07;17.40;99.90
5172;DHT22;2605;49.770;9.868;2022-08-19T04:48:33;17.40;99.90
5172;DHT22;2605;49.770;9.868;2022-08-19T04:50:59;17.50;99.90
5172;DHT22;2605;49.770;9.868;2022-08-19T04:53:32;17.60;99.90
5172;DHT22;2605;49.770;9.868;2022-08-19T04:56:02;17.70;99.90
5172;DHT22;2605;49.770;9.868;2022-08-19T04:58:29;17.80;99.90
5172;DHT22;2605;49.770;9.868;2022-08-19T05:00:55;17.80;99.90
5172;DHT22;2605;49.770;9.868;2022-08-19T05:03:21;17.90;99.90
5172;DHT22;2605;49.770;9.868;2022-08-19T05:05:47;17.90;99.90
5172;DHT22;2605;49.770;9.868;2022-08-19T05:08:18;18.00;99.90
5172;DHT22;2605;49.770;9.868;2022-08-19T05:10:49;18.00;99.90
5172;DHT22;2605;49.770;9.868;2022-08-19T05:13:17;18.10;99.90
5172;DHT22;2605;49.770;9.868;2022-08-19T05:15:43;18.10;99.90
5172;DHT22;2605;49.770;9.868;2022-08-19T05:18:11;18.20;99.90
5172;DHT22;2605;49.770;9.868;2022-08-19T05:20:55;18.30;99.90
5172;DHT22;2605;49.770;9.868;2022-08-19T05:23:39;18.30;99.90
5172;DHT22;2605;49.770;9.868;2022-08-19T05:26:06;18.30;99.90
5172;DHT22;2605;49.770;9.868;2022-08-19T05:28:31;18.30;99.90
5172;DHT22;2605;49.770;9.868;2022-08-19T05:30:57;18.30;99.90
5172;DHT22;2605;49.770;9.868;2022-08-19T05:33:23;18.40;99.90
5172;DHT22;2605;49.770;9.868;2022-08-19T05:35:49;18.40;99.90
5172;DHT22;2605;49.770;9.868;2022-08-19T05:38:16;18.30;99.90
5172;DHT22;2605;49.770;9.868;2022-08-19T05:40:41;18.30;99.90
5172;DHT22;2605;49.770;9.868;2022-08-19T05:43:11;18.30;99.90
5172;DHT22;2605;49.770;9.868;2022-08-19T05:45:41;18.30;99.90
5172;DHT22;2605;49.770;9.868;2022-08-19T05:48:07;18.30;99.90
5172;DHT22;2605;49.770;9.868;2022-08-19T05:50:37;18.40;99.90
5172;DHT22;2605;49.770;9.868;2022-08-19T05:53:03;18.40;99.90
5172;DHT22;2605;49.770;9.868;2022-08-19T05:55:29;18.40;99.90
5172;DHT22;2605;49.770;9.868;2022-08-19T05:57:54;18.50;99.90
5172;DHT22;2605;49.770;9.868;2022-08-19T06:00:20;18.60;99.90
5172;DHT22;2605;49.770;9.868;2022-08-19T06:02:45;18.60;99.90
5172;DHT22;2605;49.770;9.868;2022-08-19T06:05:11;18.70;99.90
5172;DHT22;2605;49.770;9.868;2022-08-19T06:07:37;18.90;99.90
5172;DHT22;2605;49.770;9.868;2022-08-19T06:10:05;19.00;99.90
5172;DHT22;2605;49.770;9.868;2022-08-19T06:12:32;19.10;99.90
5172;DHT22;2605;49.770;9.868;2022-08-19T06:15:01;19.20;99.90
5172;DHT22;2605;49.770;9.868;2022-08-19T06:17:28;19.30;99.90
5172;DHT22;2605;49.770;9.868;2022-08-19T06:19:55;19.40;99.90
5172;DHT22;2605;49.770;9.868;2022-08-19T06:22:21;19.50;99.90
5172;DHT22;2605;49.770;9.868;2022-08-19T06:24:46;19.60;99.90
5172;DHT22;2605;49.770;9.868;2022-08-19T06:27:12;19.60;99.90
5172;DHT22;2605;49.770;9.868;2022-08-19T06:29:38;19.70;99.90
5172;DHT22;2605;49.770;9.868;2022-08-19T06:32:03;19.80;99.90
5172;DHT22;2605;49.770;9.868;2022-08-19T06:34:31;19.90;99.90
5172;DHT22;2605;49.770;9.868;2022-08-19T06:36:59;19.90;99.90
5172;DHT22;2605;49.770;9.868;2022-08-19T06:39:28;20.00;99.90
5172;DHT22;2605;49.770;9.868;2022-08-19T06:41:57;20.00;99.90
5172;DHT22;2605;49.770;9.868;2022-08-19T06:44:25;19.90;99.90
5172;DHT22;2605;49.770;9.868;2022-08-19T06:46:51;19.90;99.90
5172;DHT22;2605;49.770;9.868;2022-08-19T06:49:17;19.90;99.90
5172;DHT22;2605;49.770;9.868;2022-08-19T06:51:44;19.80;99.90
5172;DHT22;2605;49.770;9.868;2022-08-19T06:54:13;19.80;99.90
5172;DHT22;2605;49.770;9.868;2022-08-19T06:56:39;19.80;99.90
5172;DHT22;2605;49.770;9.868;2022-08-19T06:59:07;19.90;99.90
5172;DHT22;2605;49.770;9.868;2022-08-19T07:01:45;19.90;99.90
5172;DHT22;2605;49.770;9.868;2022-08-19T07:04:13;20.00;99.90
5172;DHT22;2605;49.770;9.868;2022-08-19T07:06:39;20.20;99.90
5172;DHT22;2605;49.770;9.868;2022-08-19T07:09:06;20.30;99.90
5172;DHT22;2605;49.770;9.868;2022-08-19T07:11:32;20.30;99.90
5172;DHT22;2605;49.770;9.868;2022-08-19T07:13:59;20.50;99.90
5172;DHT22;2605;49.770;9.868;2022-08-19T07:16:24;20.50;99.90
5172;DHT22;2605;49.770;9.868;2022-08-19T07:18:50;20.60;99.90
5172;DHT22;2605;49.770;9.868;2022-08-19T07:21:22;20.60;99.90
5172;DHT22;2605;49.770;9.868;2022-08-19T07:23:50;20.50;99.90
5172;DHT22;2605;49.770;9.868;2022-08-19T07:26:30;20.50;99.90
5172;DHT22;2605;49.770;9.868;2022-08-19T07:28:57;20.40;99.90
5172;DHT22;2605;49.770;9.868;2022-08-19T07:31:27;20.50;99.90
5172;DHT22;2605;49.770;9.868;2022-08-19T07:33:54;20.40;99.90
5172;DHT22;2605;49.770;9.868;2022-08-19T07:36:24;20.60;99.90
5172;DHT22;2605;49.770;9.868;2022-08-19T07:38:51;20.70;99.90
5172;DHT22;2605;49.770;9.868;2022-08-19T07:41:20;20.80;99.90
5172;DHT22;2605;49.770;9.868;2022-08-19T07:43:47;20.90;99.90
5172;DHT22;2605;49.770;9.868;2022-08-19T07:46:13;21.00;99.90
5172;DHT22;2605;49.770;9.868;2022-08-19T07:48:41;21.10;99.90
5172;DHT22;2605;49.770;9.868;2022-08-19T07:51:08;21.20;99.90
5172;DHT22;2605;49.770;9.868;2022-08-19T07:53:35;21.20;99.90
5172;DHT22;2605;49.770;9.868;2022-08-19T07:56:03;21.20;99.90
5172;DHT22;2605;49.770;9.868;2022-08-19T07:58:34;21.30;99.90
5172;DHT22;2605;49.770;9.868;2022-08-19T08:01:01;21.20;99.90
5172;DHT22;2605;49.770;9.868;2022-08-19T08:03:28;21.10;99.90
5172;DHT22;2605;49.770;9.868;2022-08-19T08:06:16;21.20;99.90
5172;DHT22;2605;49.770;9.868;2022-08-19T08:09:02;21.20;99.90
5172;DHT22;2605;49.770;9.868;2022-08-19T08:11:51;21.40;99.90
5172;DHT22;2605;49.770;9.868;2022-08-19T08:14:27;21.60;99.90
5172;DHT22;2605;49.770;9.868;2022-08-19T08:16:53;21.70;99.90
5172;DHT22;2605;49.770;9.868;2022-08-19T08:19:21;21.80;99.90
5172;DHT22;2605;49.770;9.868;2022-08-19T08:21:48;21.80;99.90
5172;DHT22;2605;49.770;9.868;2022-08-19T08:24:14;22.00;99.90
5172;DHT22;2605;49.770;9.868;2022-08-19T08:26:40;22.10;99.90
5172;DHT22;2605;49.770;9.868;2022-08-19T08:29:06;22.30;99.90
5172;DHT22;2605;49.770;9.868;2022-08-19T08:31:35;22.40;99.90
5172;DHT22;2605;49.770;9.868;2022-08-19T08:34:01;22.50;99.90
5172;DHT22;2605;49.770;9.868;2022-08-19T08:36:26;22.50;99.90
5172;DHT22;2605;49.770;9.868;2022-08-19T08:38:52;22.50;99.90
5172;DHT22;2605;49.770;9.868;2022-08-19T08:41:38;22.40;99.90
5172;DHT22;2605;49.770;9.868;2022-08-19T08:44:06;22.40;99.90
5172;DHT22;2605;49.770;9.868;2022-08-19T08:46:50;22.30;99.90
5172;DHT22;2605;49.770;9.868;2022-08-19T08:49:40;22.40;99.90
5172;DHT22;2605;49.770;9.868;2022-08-19T08:52:11;22.50;99.90
5172;DHT22;2605;49.770;9.868;2022-08-19T08:54:41;22.30;99.90
5172;DHT22;2605;49.770;9.868;2022-08-19T08:57:19;22.30;99.90
5172;DHT22;2605;49.770;9.868;2022-08-19T08:59:48;22.40;99.90
5172;DHT22;2605;49.770;9.868;2022-08-19T09:02:17;22.40;99.90
5172;DHT22;2605;49.770;9.868;2022-08-19T09:04:43;22.50;99.90
5172;DHT22;2605;49.770;9.868;2022-08-19T09:07:25;22.50;99.90
5172;DHT22;2605;49.770;9.868;2022-08-19T09:10:22;22.50;99.90
5172;DHT22;2605;49.770;9.868;2022-08-19T09:12:54;22.40;99.90
5172;DHT22;2605;49.770;9.868;2022-08-19T09:15:28;22.60;99.90
5172;DHT22;2605;49.770;9.868;2022-08-19T09:17:54;22.70;99.90
5172;DHT22;2605;49.770;9.868;2022-08-19T09:20:24;22.60;99.90
5172;DHT22;2605;49.770;9.868;2022-08-19T09:22:50;22.90;99.90
5172;DHT22;2605;49.770;9.868;2022-08-19T09:25:18;22.90;99.90
5172;DHT22;2605;49.770;9.868;2022-08-19T09:27:46;23.10;99.90
5172;DHT22;2605;49.770;9.868;2022-08-19T09:30:16;23.30;99.90
5172;DHT22;2605;49.770;9.868;2022-08-19T09:32:43;23.30;99.90
5172;DHT22;2605;49.770;9.868;2022-08-19T09:35:09;23.40;99.90
5172;DHT22;2605;49.770;9.868;2022-08-19T09:37:35;23.30;99.90
5172;DHT22;2605;49.770;9.868;2022-08-19T09:40:02;23.40;99.90
5172;DHT22;2605;49.770;9.868;2022-08-19T09:42:29;23.30;99.90
5172;DHT22;2605;49.770;9.868;2022-08-19T09:44:54;23.60;99.90
5172;DHT22;2605;49.770;9.868;2022-08-19T09:47:20;23.70;99.90
5172;DHT22;2605;49.770;9.868;2022-08-19T09:49:45;23.70;99.90
5172;DHT22;2605;49.770;9.868;2022-08-19T09:52:11;24.10;99.90
5172;DHT22;2605;49.770;9.868;2022-08-19T09:54:38;23.80;99.90
5172;DHT22;2605;49.770;9.868;2022-08-19T09:57:04;23.70;99.90
5172;DHT22;2605;49.770;9.868;2022-08-19T09:59:30;23.50;99.90
5172;DHT22;2605;49.770;9.868;2022-08-19T10:01:56;23.20;99.90
5172;DHT22;2605;49.770;9.868;2022-08-19T10:04:21;23.00;99.90
5172;DHT22;2605;49.770;9.868;2022-08-19T10:06:48;22.90;99.90
5172;DHT22;2605;49.770;9.868;2022-08-19T10:09:16;23.00;99.90
5172;DHT22;2605;49.770;9.868;2022-08-19T10:11:46;22.70;99.90
5172;DHT22;2605;49.770;9.868;2022-08-19T10:14:13;22.60;99.90
5172;DHT22;2605;49.770;9.868;2022-08-19T10:16:40;22.30;99.90
5172;DHT22;2605;49.770;9.868;2022-08-19T10:19:07;22.30;99.90
5172;DHT22;2605;49.770;9.868;2022-08-19T10:21:34;22.20;99.90
5172;DHT22;2605;49.770;9.868;2022-08-19T10:24:02;22.20;99.90
5172;DHT22;2605;49.770;9.868;2022-08-19T10:26:33;22.20;99.90
5172;DHT22;2605;49.770;9.868;2022-08-19T10:28:59;22.30;99.90
5172;DHT22;2605;49.770;9.868;2022-08-19T10:31:28;22.40;99.90
5172;DHT22;2605;49.770;9.868;2022-08-19T10:33:54;22.60;99.90
5172;DHT22;2605;49.770;9.868;2022-08-19T10:36:27;22.70;99.90
5172;DHT22;2605;49.770;9.868;2022-08-19T10:38:56;22.60;99.90
5172;DHT22;2605;49.770;9.868;2022-08-19T10:41:26;22.90;99.90
5172;DHT22;2605;49.770;9.868;2022-08-19T10:43:57;23.10;99.90
5172;DHT22;2605;49.770;9.868;2022-08-19T10:46:25;23.30;99.90
5172;DHT22;2605;49.770;9.868;2022-08-19T10:48:51;23.10;99.90
5172;DHT22;2605;49.770;9.868;2022-08-19T10:51:17;23.10;99.90
5172;DHT22;2605;49.770;9.868;2022-08-19T10:54:02;23.20;99.90
5172;DHT22;2605;49.770;9.868;2022-08-19T10:56:28;23.10;99.90
5172;DHT22;2605;49.770;9.868;2022-08-19T10:59:16;23.30;99.90
5172;DHT22;2605;49.770;9.868;2022-08-19T11:01:43;23.40;99.90
5172;DHT22;2605;49.770;9.868;2022-08-19T11:04:09;23.60;99.90
5172;DHT22;2605;49.770;9.868;2022-08-19T11:06:37;23.30;99.90
5172;DHT22;2605;49.770;9.868;2022-08-19T11:09:04;23.30;99.90
5172;DHT22;2605;49.770;9.868;2022-08-19T11:11:30;23.20;99.90
5172;DHT22;2605;49.770;9.868;2022-08-19T11:13:57;23.40;99.90
5172;DHT22;2605;49.770;9.868;2022-08-19T11:16:25;23.90;99.90
5172;DHT22;2605;49.770;9.868;2022-08-19T11:18:56;24.00;99.90
5172;DHT22;2605;49.770;9.868;2022-08-19T11:21:26;24.00;99.90
5172;DHT22;2605;49.770;9.868;2022-08-19T11:23:56;24.00;99.90
5172;DHT22;2605;49.770;9.868;2022-08-19T11:26:25;23.90;99.90
5172;DHT22;2605;49.770;9.868;2022-08-19T11:28:51;24.00;99.90
5172;DHT22;2605;49.770;9.868;2022-08-19T11:31:21;24.00;99.90
5172;DHT22;2605;49.770;9.868;2022-08-19T11:33:47;24.10;99.90
5172;DHT22;2605;49.770;9.868;2022-08-19T11:36:16;24.30;99.90
5172;DHT22;2605;49.770;9.868;2022-08-19T11:38:44;24.60;99.90
5172;DHT22;2605;49.770;9.868;2022-08-19T11:41:10;24.60;99.90
5172;DHT22;2605;49.770;9.868;2022-08-19T11:43:39;24.60;99.90
5172;DHT22;2605;49.770;9.868;2022-08-19T11:46:06;24.70;99.90
5172;DHT22;2605;49.770;9.868;2022-08-19T11:48:32;24.90;99.90
5172;DHT22;2605;49.770;9.868;2022-08-19T11:50:58;24.80;99.90
5172;DHT22;2605;49.770;9.868;2022-08-19T11:53:24;24.80;99.90
5172;DHT22;2605;49.770;9.868;2022-08-19T11:55:52;24.80;99.90
5172;DHT22;2605;49.770;9.868;2022-08-19T11:58:21;24.70;99.90
5172;DHT22;2605;49.770;9.868;2022-08-19T12:00:46;24.60;99.90
5172;DHT22;2605;49.770;9.868;2022-08-19T12:03:14;24.60;99.90
5172;DHT22;2605;49.770;9.868;2022-08-19T12:05:40;24.60;99.90
5172;DHT22;2605;49.770;9.868;2022-08-19T12:08:07;24.70;99.90
5172;DHT22;2605;49.770;9.868;2022-08-19T12:10:34;24.70;99.90
5172;DHT22;2605;49.770;9.868;2022-08-19T12:13:00;24.90;99.90
5172;DHT22;2605;49.770;9.868;2022-08-19T12:15:26;25.20;99.90
5172;DHT22;2605;49.770;9.868;2022-08-19T12:17:54;25.00;99.90
5172;DHT22;2605;49.770;9.868;2022-08-19T12:20:23;24.90;99.90
5172;DHT22;2605;49.770;9.868;2022-08-19T12:22:49;24.80;99.90
5172;DHT22;2605;49.770;9.868;2022-08-19T12:25:15;24.80;99.90
5172;DHT22;2605;49.770;9.868;2022-08-19T12:27:41;24.80;99.90
5172;DHT22;2605;49.770;9.868;2022-08-19T12:30:09;24.80;99.90
5172;DHT22;2605;49.770;9.868;2022-08-19T12:32:35;24.80;99.90
5172;DHT22;2605;49.770;9.868;2022-08-19T12:35:00;25.10;99.90
5172;DHT22;2605;49.770;9.868;2022-08-19T12:37:26;25.00;99.90
5172;DHT22;2605;49.770;9.868;2022-08-19T12:39:52;25.20;99.90
5172;DHT22;2605;49.770;9.868;2022-08-19T12:42:17;25.00;99.90
5172;DHT22;2605;49.770;9.868;2022-08-19T12:44:45;24.70;99.90
5172;DHT22;2605;49.770;9.868;2022-08-19T12:47:12;24.50;99.90
5172;DHT22;2605;49.770;9.868;2022-08-19T12:49:39;24.50;99.90
5172;DHT22;2605;49.770;9.868;2022-08-19T12:52:07;24.30;99.90
5172;DHT22;2605;49.770;9.868;2022-08-19T12:54:35;24.00;99.90
5172;DHT22;2605;49.770;9.868;2022-08-19T12:57:05;24.00;99.90
5172;DHT22;2605;49.770;9.868;2022-08-19T12:59:31;24.00;99.90
5172;DHT22;2605;49.770;9.868;2022-08-19T13:01:56;23.90;99.90
5172;DHT22;2605;49.770;9.868;2022-08-19T13:04:22;24.00;99.90
5172;DHT22;2605;49.770;9.868;2022-08-19T13:06:48;24.20;99.90
5172;DHT22;2605;49.770;9.868;2022-08-19T13:09:13;24.20;99.90
5172;DHT22;2605;49.770;9.868;2022-08-19T13:11:39;24.20;99.90
5172;DHT22;2605;49.770;9.868;2022-08-19T13:14:04;24.10;99.90
5172;DHT22;2605;49.770;9.868;2022-08-19T13:16:30;24.00;99.90
5172;DHT22;2605;49.770;9.868;2022-08-19T13:18:57;24.10;99.90
5172;DHT22;2605;49.770;9.868;2022-08-19T13:21:25;24.20;99.90
5172;DHT22;2605;49.770;9.868;2022-08-19T13:23:52;24.40;99.90
5172;DHT22;2605;49.770;9.868;2022-08-19T13:26:21;24.60;99.90
5172;DHT22;2605;49.770;9.868;2022-08-19T13:28:47;24.90;99.90
5172;DHT22;2605;49.770;9.868;2022-08-19T13:31:34;25.10;99.90
5172;DHT22;2605;49.770;9.868;2022-08-19T13:34:25;25.10;99.90
5172;DHT22;2605;49.770;9.868;2022-08-19T13:36:56;25.10;99.90
5172;DHT22;2605;49.770;9.868;2022-08-19T13:39:21;25.20;99.90
5172;DHT22;2605;49.770;9.868;2022-08-19T13:41:48;25.30;99.90
5172;DHT22;2605;49.770;9.868;2022-08-19T13:44:16;25.40;99.90
5172;DHT22;2605;49.770;9.868;2022-08-19T13:46:43;25.60;99.90
5172;DHT22;2605;49.770;9.868;2022-08-19T13:49:10;25.50;99.90
5172;DHT22;2605;49.770;9.868;2022-08-19T13:51:37;25.40;99.90
5172;DHT22;2605;49.770;9.868;2022-08-19T13:54:03;25.40;99.90
5172;DHT22;2605;49.770;9.868;2022-08-19T13:56:29;25.80;99.90
5172;DHT22;2605;49.770;9.868;2022-08-19T13:58:54;26.00;99.90
5172;DHT22;2605;49.770;9.868;2022-08-19T14:01:21;26.20;99.90
5172;DHT22;2605;49.770;9.868;2022-08-19T14:03:47;26.20;99.90
5172;DHT22;2605;49.770;9.868;2022-08-19T14:06:12;26.30;99.90
5172;DHT22;2605;49.770;9.868;2022-08-19T14:08:38;26.40;99.90
5172;DHT22;2605;49.770;9.868;2022-08-19T14:11:07;26.40;99.90
5172;DHT22;2605;49.770;9.868;2022-08-19T14:13:33;26.30;99.90
5172;DHT22;2605;49.770;9.868;2022-08-19T14:15:59;26.20;99.90
5172;DHT22;2605;49.770;9.868;2022-08-19T14:18:25;26.10;99.90
5172;DHT22;2605;49.770;9.868;2022-08-19T14:20:51;26.00;99.90
5172;DHT22;2605;49.770;9.868;2022-08-19T14:23:17;25.90;99.90
5172;DHT22;2605;49.770;9.868;2022-08-19T14:25:42;25.90;99.90
5172;DHT22;2605;49.770;9.868;2022-08-19T14:28:08;25.90;99.90
5172;DHT22;2605;49.770;9.868;2022-08-19T14:30:36;26.00;99.90
5172;DHT22;2605;49.770;9.868;2022-08-19T14:33:03;25.80;99.90
5172;DHT22;2605;49.770;9.868;2022-08-19T14:35:31;25.60;99.90
5172;DHT22;2605;49.770;9.868;2022-08-19T14:38:00;25.50;99.90
5172;DHT22;2605;49.770;9.868;2022-08-19T14:40:28;25.60;99.90
5172;DHT22;2605;49.770;9.868;2022-08-19T14:42:59;25.70;99.90
5172;DHT22;2605;49.770;9.868;2022-08-19T14:45:28;25.60;99.90
5172;DHT22;2605;49.770;9.868;2022-08-19T14:47:53;25.60;99.90
5172;DHT22;2605;49.770;9.868;2022-08-19T14:50:19;25.80;99.90
5172;DHT22;2605;49.770;9.868;2022-08-19T14:52:46;25.80;99.90
5172;DHT22;2605;49.770;9.868;2022-08-19T14:55:14;25.60;99.90
5172;DHT22;2605;49.770;9.868;2022-08-19T14:57:41;25.40;99.90
5172;DHT22;2605;49.770;9.868;2022-08-19T15:00:08;25.50;99.90
5172;DHT22;2605;49.770;9.868;2022-08-19T15:02:38;25.60;99.90
5172;DHT22;2605;49.770;9.868;2022-08-19T15:05:04;25.60;99.90
5172;DHT22;2605;49.770;9.868;2022-08-19T15:07:29;25.60;99.90
5172;DHT22;2605;49.770;9.868;2022-08-19T15:09:58;25.60;99.90
5172;DHT22;2605;49.770;9.868;2022-08-19T15:12:24;25.40;99.90
5172;DHT22;2605;49.770;9.868;2022-08-19T15:14:50;25.20;99.90
5172;DHT22;2605;49.770;9.868;2022-08-19T15:17:17;25.10;99.90
5172;DHT22;2605;49.770;9.868;2022-08-19T15:19:43;25.00;99.90
5172;DHT22;2605;49.770;9.868;2022-08-19T15:22:08;25.00;99.90
5172;DHT22;2605;49.770;9.868;2022-08-19T15:24:35;25.00;99.90
5172;DHT22;2605;49.770;9.868;2022-08-19T15:27:01;25.00;99.90
5172;DHT22;2605;49.770;9.868;2022-08-19T15:29:27;25.10;99.90
5172;DHT22;2605;49.770;9.868;2022-08-19T15:31:53;25.20;99.90
5172;DHT22;2605;49.770;9.868;2022-08-19T15:34:21;25.20;99.90
5172;DHT22;2605;49.770;9.868;2022-08-19T15:36:46;25.30;99.90
5172;DHT22;2605;49.770;9.868;2022-08-19T15:39:12;25.40;99.90
5172;DHT22;2605;49.770;9.868;2022-08-19T15:41:38;25.50;99.90
5172;DHT22;2605;49.770;9.868;2022-08-19T15:44:09;25.40;99.90
5172;DHT22;2605;49.770;9.868;2022-08-19T15:46:38;25.50;99.90
5172;DHT22;2605;49.770;9.868;2022-08-19T15:49:05;25.40;99.90
5172;DHT22;2605;49.770;9.868;2022-08-19T15:51:33;25.30;99.90
5172;DHT22;2605;49.770;9.868;2022-08-19T15:54:05;25.40;99.90
5172;DHT22;2605;49.770;9.868;2022-08-19T15:56:31;25.40;99.90
5172;DHT22;2605;49.770;9.868;2022-08-19T15:59:15;25.60;99.90
5172;DHT22;2605;49.770;9.868;2022-08-19T16:01:59;25.80;99.90
5172;DHT22;2605;49.770;9.868;2022-08-19T16:04:43;26.00;99.90
5172;DHT22;2605;49.770;9.868;2022-08-19T16:07:28;26.10;99.90